createdAt,value
2022-08-12T00:00:51.574Z,24.90
2022-08-12T00:03:36.978Z,24.80
2022-08-12T00:06:22.617Z,24.80
2022-08-12T00:09:08.299Z,24.80
2022-08-12T00:11:54.716Z,24.70
2022-08-12T00:14:41.096Z,24.70
2022-08-12T00:17:27.010Z,24.70
2022-08-12T00:20:12.600Z,24.50
2022-08-12T00:22:59.631Z,24.50
2022-08-12T00:26:23.598Z,24.30
2022-08-12T00:29:02.534Z,24.20
2022-08-12T00:31:48.280Z,24.20
2022-08-12T00:34:34.952Z,24.20
2022-08-12T00:37:20.922Z,24.20
2022-08-12T00:40:11.050Z,24.20
2022-08-12T00:42:40.878Z,24.30
2022-08-12T00:45:08.798Z,24.30
2022-08-12T00:47:36.213Z,24.30
2022-08-12T00:50:04.463Z,24.30
2022-08-12T00:52:33.309Z,24.20
2022-08-12T00:55:02.238Z,24.20
2022-08-12T00:57:36.870Z,24.10
2022-08-12T01:00:18.503Z,24.20
2022-08-12T01:02:49.061Z,24.20
2022-08-12T01:05:37.630Z,24.00
2022-08-12T01:08:24.333Z,24.00
2022-08-12T01:11:10.601Z,23.90
2022-08-12T01:13:42.566Z,23.90
2022-08-12T01:16:09.818Z,24.00
2022-08-12T01:18:38.980Z,23.90
2022-08-12T01:21:06.649Z,23.90
2022-08-12T01:23:45.776Z,23.80
2022-08-12T01:26:21.364Z,23.80
2022-08-12T01:28:52.661Z,23.80
2022-08-12T01:31:20.427Z,23.70
2022-08-12T01:34:04.188Z,23.70
2022-08-12T01:36:40.056Z,23.60
2022-08-12T01:39:08.444Z,23.60
2022-08-12T01:41:53.585Z,23.60
2022-08-12T01:44:22.558Z,23.60
2022-08-12T01:47:26.341Z,23.40
2022-08-12T01:50:29.796Z,23.40
2022-08-12T01:53:13.015Z,23.40
2022-08-12T01:55:45.190Z,23.30
2022-08-12T01:58:15.209Z,23.30
2022-08-12T02:00:55.550Z,23.30
2022-08-12T02:03:53.338Z,23.20
2022-08-12T02:06:50.758Z,23.30
2022-08-12T02:09:44.197Z,23.20
2022-08-12T02:12:34.754Z,23.20
2022-08-12T02:15:33.418Z,23.20
2022-08-12T02:18:16.035Z,23.10
2022-08-12T02:20:52.989Z,23.10
2022-08-12T02:23:27.049Z,23.10
2022-08-12T02:25:59.612Z,23.00
2022-08-12T02:28:26.799Z,23.10
2022-08-12T02:30:55.141Z,23.00
2022-08-12T02:33:23.113Z,22.90
2022-08-12T02:35:51.590Z,22.80
2022-08-12T02:38:21.702Z,22.70
2022-08-12T02:40:52.958Z,22.60
2022-08-12T02:43:19.747Z,22.60
2022-08-12T02:46:15.015Z,22.50
2022-08-12T02:48:53.391Z,22.40
2022-08-12T02:51:30.870Z,22.40
2022-08-12T02:54:05.395Z,22.30
2022-08-12T02:56:40.627Z,22.40
2022-08-12T02:59:14.430Z,22.40
2022-08-12T03:01:54.059Z,22.30
2022-08-12T03:04:40.235Z,22.30
2022-08-12T03:07:14.917Z,22.30
2022-08-12T03:10:04.032Z,22.20
2022-08-12T03:12:48.937Z,22.20
2022-08-12T03:15:22.360Z,22.10
2022-08-12T03:18:24.833Z,22.10
2022-08-12T03:20:46.161Z,22.00
2022-08-12T03:23:19.374Z,22.00
2022-08-12T03:25:57.227Z,21.90
2022-08-12T03:28:42.850Z,21.80
2022-08-12T03:31:10.531Z,21.80
2022-08-12T03:33:43.834Z,21.80
2022-08-12T03:36:24.215Z,21.80
2022-08-12T03:39:11.610Z,21.80
2022-08-12T03:41:48.254Z,21.80
2022-08-12T03:44:50.625Z,21.70
2022-08-12T03:47:47.844Z,21.80
2022-08-12T03:50:33.358Z,21.80
2022-08-12T03:53:19.448Z,21.90
2022-08-12T03:56:04.642Z,21.90
2022-08-12T03:58:50.345Z,21.90
2022-08-12T04:01:18.316Z,21.80
2022-08-12T04:03:54.855Z,21.70
2022-08-12T04:06:35.378Z,21.70
2022-08-12T04:09:16.052Z,21.80
2022-08-12T04:12:04.102Z,21.80
2022-08-12T04:14:32.301Z,21.70
2022-08-12T04:16:59.930Z,21.70
2022-08-12T04:19:26.856Z,21.60
2022-08-12T04:22:01.978Z,21.60
2022-08-12T04:24:36.821Z,21.50
2022-08-12T04:27:09.993Z,21.60
2022-08-12T04:30:16.535Z,21.50
2022-08-12T04:32:26.327Z,21.50
2022-08-12T04:34:54.046Z,21.50
2022-08-12T04:37:21.082Z,21.50
2022-08-12T04:39:49.023Z,21.50
2022-08-12T04:42:16.290Z,21.50
2022-08-12T04:44:44.545Z,21.40
2022-08-12T04:47:14.215Z,21.40
2022-08-12T04:49:43.208Z,21.30
2022-08-12T04:52:10.392Z,21.50
2022-08-12T04:54:37.766Z,21.50
2022-08-12T04:57:05.964Z,21.50
2022-08-12T04:59:47.701Z,21.50
2022-08-12T05:02:21.554Z,21.50
2022-08-12T05:04:51.932Z,21.40
2022-08-12T05:07:20.318Z,21.50
2022-08-12T05:09:58.924Z,21.40
2022-08-12T05:12:43.069Z,21.60
2022-08-12T05:15:19.643Z,21.70
2022-08-12T05:17:56.340Z,21.60
2022-08-12T05:20:27.322Z,21.60
2022-08-12T05:23:13.364Z,21.50
2022-08-12T05:25:45.214Z,21.60
2022-08-12T05:28:13.611Z,21.60
2022-08-12T05:30:42.665Z,21.60
2022-08-12T05:33:11.308Z,21.70
2022-08-12T05:35:41.858Z,21.70
2022-08-12T05:38:37.912Z,21.80
2022-08-12T05:41:19.093Z,21.90
2022-08-12T05:43:54.412Z,22.00
2022-08-12T05:46:23.819Z,22.00
2022-08-12T05:48:54.313Z,22.00
2022-08-12T05:51:24.780Z,22.10
2022-08-12T05:54:05.683Z,22.10
2022-08-12T05:56:35.110Z,22.20
2022-08-12T05:59:07.481Z,22.30
2022-08-12T06:02:11.882Z,22.30
2022-08-12T06:04:22.726Z,22.40
2022-08-12T06:06:53.296Z,22.50
2022-08-12T06:09:22.449Z,22.50
2022-08-12T06:12:05.817Z,22.60
2022-08-12T06:14:38.743Z,22.70
2022-08-12T06:17:08.503Z,22.60
2022-08-12T06:20:28.201Z,22.70
2022-08-12T06:22:22.950Z,22.80
2022-08-12T06:24:50.034Z,22.90
2022-08-12T06:27:18.912Z,23.00
2022-08-12T06:30:09.343Z,23.10
2022-08-12T06:32:33.303Z,23.10
2022-08-12T06:35:26.657Z,23.10
2022-08-12T06:37:56.357Z,23.20
2022-08-12T06:40:43.463Z,23.30
2022-08-12T06:43:10.332Z,23.40
2022-08-12T06:45:46.765Z,23.50
2022-08-12T06:48:14.224Z,23.60
2022-08-12T06:50:42.440Z,23.80
2022-08-12T06:53:11.349Z,23.80
2022-08-12T06:55:56.580Z,23.90
2022-08-12T06:58:26.158Z,23.90
2022-08-12T07:00:54.035Z,24.00
2022-08-12T07:03:27.893Z,24.10
2022-08-12T07:06:00.482Z,24.20
2022-08-12T07:08:29.456Z,24.20
2022-08-12T07:11:01.720Z,24.30
2022-08-12T07:14:11.199Z,24.40
2022-08-12T07:16:27.106Z,24.50
2022-08-12T07:18:55.474Z,24.60
2022-08-12T07:21:55.788Z,24.70
2022-08-12T07:24:12.280Z,24.90
2022-08-12T07:26:44.259Z,25.00
2022-08-12T07:29:11.693Z,25.00
2022-08-12T07:31:38.986Z,25.00
2022-08-12T07:34:06.529Z,25.10
2022-08-12T07:36:33.995Z,25.20
2022-08-12T07:39:02.569Z,25.30
2022-08-12T07:41:31.714Z,25.40
2022-08-12T07:44:07.757Z,25.40
2022-08-12T07:46:43.587Z,25.50
2022-08-12T07:49:13.435Z,25.60
2022-08-12T07:51:42.293Z,25.70
2022-08-12T07:54:10.457Z,25.80
2022-08-12T07:56:40.110Z,25.80
2022-08-12T07:59:08.944Z,25.90
2022-08-12T08:01:38.088Z,26.10
2022-08-12T08:04:24.940Z,26.20
2022-08-12T08:06:52.114Z,26.30
2022-08-12T08:09:22.591Z,26.40
2022-08-12T08:12:08.498Z,26.50
2022-08-12T08:14:35.500Z,26.60
2022-08-12T08:17:06.734Z,26.80
2022-08-12T08:20:02.185Z,26.80
2022-08-12T08:22:33.477Z,26.90
2022-08-12T08:25:34.958Z,27.10
2022-08-12T08:27:57.417Z,27.20
2022-08-12T08:30:24.717Z,27.40
2022-08-12T08:32:51.584Z,27.50
2022-08-12T08:35:19.900Z,27.60
2022-08-12T08:37:50.792Z,27.70
2022-08-12T08:40:36.910Z,27.70
2022-08-12T08:43:04.924Z,27.90
2022-08-12T08:45:32.026Z,28.10
2022-08-12T08:48:00.487Z,28.30
2022-08-12T08:50:27.640Z,28.40
2022-08-12T08:52:54.520Z,28.60
2022-08-12T08:55:29.992Z,28.70
2022-08-12T08:58:04.540Z,28.80
2022-08-12T09:00:31.685Z,28.80
2022-08-12T09:06:02.980Z,29.00
2022-08-12T09:08:30.276Z,29.20
2022-08-12T09:14:10.601Z,29.60
2022-08-12T09:16:42.602Z,29.90
2022-08-12T09:19:27.292Z,29.90
2022-08-12T09:21:55.632Z,30.10
2022-08-12T09:24:22.667Z,30.30
2022-08-12T09:26:54.811Z,30.50
2022-08-12T09:30:08.789Z,30.60
2022-08-12T09:32:29.598Z,30.70
2022-08-12T09:34:57.541Z,30.90
2022-08-12T09:37:26.853Z,31.10
2022-08-12T09:40:04.494Z,31.20
2022-08-12T09:43:16.841Z,31.40
2022-08-12T09:46:11.112Z,31.40
2022-08-12T09:48:39.336Z,31.50
2022-08-12T09:51:16.782Z,31.60
2022-08-12T09:54:09.006Z,31.80
2022-08-12T09:57:00.420Z,31.90
2022-08-12T10:00:15.757Z,32.00
2022-08-12T10:02:45.709Z,32.30
2022-08-12T10:05:01.800Z,32.50
2022-08-12T10:07:40.226Z,32.70
2022-08-12T10:10:24.299Z,32.70
2022-08-12T10:13:12.801Z,32.80
2022-08-12T10:16:02.086Z,32.90
2022-08-12T10:18:32.842Z,33.00
2022-08-12T10:21:09.509Z,33.20
2022-08-12T10:23:40.247Z,33.30
2022-08-12T10:26:36.606Z,33.50
2022-08-12T10:30:03.243Z,33.60
2022-08-12T10:32:44.010Z,33.70
2022-08-12T10:35:13.297Z,33.70
2022-08-12T10:38:38.809Z,33.90
2022-08-12T10:40:32.712Z,34.00
2022-08-12T10:43:20.299Z,34.10
2022-08-12T10:45:58.394Z,34.00
2022-08-12T10:48:34.270Z,34.20
2022-08-12T10:51:51.673Z,34.30
2022-08-12T10:53:52.593Z,34.40
2022-08-12T10:56:19.916Z,34.40
2022-08-12T10:58:49.140Z,34.50
2022-08-12T11:01:50.290Z,34.50
2022-08-12T11:04:25.037Z,34.60
2022-08-12T11:07:08.650Z,34.70
2022-08-12T11:09:59.618Z,34.80
2022-08-12T11:12:56.161Z,34.80
2022-08-12T11:15:24.174Z,34.80
2022-08-12T11:17:53.363Z,35.00
2022-08-12T11:20:29.038Z,35.10
2022-08-12T11:23:05.813Z,35.20
2022-08-12T11:25:57.901Z,35.30
2022-08-12T11:28:33.566Z,35.30
2022-08-12T11:31:02.308Z,35.50
2022-08-12T11:34:06.045Z,35.60
2022-08-12T11:36:17.216Z,35.90
2022-08-12T11:38:50.545Z,36.20
2022-08-12T11:41:31.775Z,36.30
2022-08-12T11:44:27.573Z,36.70
2022-08-12T11:46:53.271Z,36.90
2022-08-12T11:49:32.278Z,37.10
2022-08-12T11:52:03.537Z,36.90
2022-08-12T11:54:31.641Z,36.90
2022-08-12T11:57:01.997Z,37.00
2022-08-12T12:02:20.735Z,37.40
2022-08-12T12:04:53.866Z,37.50
2022-08-12T12:08:36.314Z,37.40
2022-08-12T12:10:15.210Z,37.50
2022-08-12T12:12:50.200Z,37.60
2022-08-12T12:15:24.674Z,37.80
2022-08-12T12:17:55.942Z,37.80
2022-08-12T12:20:25.876Z,37.80
2022-08-12T12:22:54.550Z,37.80
2022-08-12T12:26:07.159Z,37.80
2022-08-12T12:28:09.874Z,38.00
2022-08-12T12:30:56.928Z,38.10
2022-08-12T12:33:26.795Z,38.20
2022-08-12T12:36:20.195Z,38.40
2022-08-12T12:38:50.055Z,38.70
2022-08-12T12:41:17.412Z,39.00
2022-08-12T12:43:56.347Z,39.10
2022-08-12T12:46:30.707Z,39.40
2022-08-12T12:48:57.587Z,40.20
2022-08-12T12:51:49.325Z,40.90
2022-08-12T12:54:12.642Z,41.40
2022-08-12T12:56:42.561Z,42.70
2022-08-12T12:59:55.202Z,43.50
2022-08-12T13:01:59.373Z,44.10
2022-08-12T13:04:27.159Z,45.60
2022-08-12T13:06:55.601Z,46.10
2022-08-12T13:09:22.887Z,47.00
2022-08-12T13:11:53.240Z,47.40
2022-08-12T13:14:27.836Z,47.70
2022-08-12T13:16:57.658Z,49.20
2022-08-12T13:19:36.640Z,49.40
2022-08-12T13:22:19.024Z,49.60
2022-08-12T13:24:52.156Z,50.10
2022-08-12T13:27:28.439Z,51.20
2022-08-12T13:30:13.070Z,51.50
2022-08-12T13:32:43.697Z,51.50
2022-08-12T13:36:03.378Z,51.80
2022-08-12T13:38:11.923Z,52.70
2022-08-12T13:40:41.669Z,53.90
2022-08-12T13:43:39.326Z,53.90
2022-08-12T13:46:09.397Z,54.70
2022-08-12T13:48:44.867Z,54.80
2022-08-12T13:51:12.552Z,54.50
2022-08-12T13:53:58.259Z,53.00
2022-08-12T13:56:31.488Z,53.60
2022-08-12T13:59:05.639Z,53.70
2022-08-12T14:01:40.437Z,54.00
2022-08-12T14:04:11.683Z,55.10
2022-08-12T14:06:39.731Z,54.50
2022-08-12T14:09:15.630Z,54.30
2022-08-12T14:11:51.120Z,54.60
2022-08-12T14:14:26.984Z,54.90
2022-08-12T14:16:53.968Z,54.60
2022-08-12T14:19:25.559Z,54.30
2022-08-12T14:22:04.774Z,54.10
2022-08-12T14:24:41.008Z,54.10
2022-08-12T14:27:10.411Z,53.90
2022-08-12T14:30:05.025Z,54.30
2022-08-12T14:32:35.532Z,54.00
2022-08-12T14:35:06.545Z,52.90
2022-08-12T14:37:54.865Z,52.60
2022-08-12T14:40:27.713Z,52.20
2022-08-12T14:42:56.997Z,51.90
2022-08-12T14:45:37.073Z,51.70
2022-08-12T14:48:13.254Z,52.20
2022-08-12T14:51:02.821Z,51.80
2022-08-12T14:59:25.007Z,52.00
2022-08-12T15:01:53.076Z,52.70
2022-08-12T15:04:29.082Z,52.80
2022-08-12T15:06:57.157Z,52.00
2022-08-12T15:09:29.316Z,51.90
2022-08-12T15:12:03.355Z,51.60
2022-08-12T15:14:32.001Z,51.20
2022-08-12T15:17:01.177Z,50.90
2022-08-12T15:20:00.142Z,51.40
2022-08-12T15:22:37.594Z,51.70
2022-08-12T15:25:07.233Z,51.40
2022-08-12T15:28:04.049Z,51.10
2022-08-12T15:30:31.017Z,51.00
2022-08-12T15:32:58.309Z,50.30
2022-08-12T15:35:31.300Z,50.40
2022-08-12T15:38:18.701Z,50.30
2022-08-12T15:40:52.485Z,49.80
2022-08-12T15:44:16.458Z,49.80
2022-08-12T15:46:15.873Z,49.60
2022-08-12T15:48:46.757Z,49.90
2022-08-12T15:51:59.444Z,49.70
2022-08-12T15:54:35.109Z,49.30
2022-08-12T15:57:08.061Z,49.40
2022-08-12T16:00:00.808Z,48.40
2022-08-12T16:02:26.665Z,47.90
2022-08-12T16:04:55.203Z,47.70
2022-08-12T16:07:26.066Z,47.80
2022-08-12T16:10:05.696Z,47.80
2022-08-12T16:12:43.425Z,47.70
2022-08-12T16:15:24.804Z,47.00
2022-08-12T16:18:18.120Z,46.60
2022-08-12T16:20:41.989Z,46.50
